Terminal Aerodrome Forecast
Issued by NWS Duluth, MN

Home | Current Version | Previous Version | Text Only | Print | Product List | Glossary On
Versions: 1 2 3 4 5 6 7 8 9 10 11 12 13 14
259
FTUS43 KDLH 201130
TAFDLH
TAF
KDLH 201130Z 2012/2112 34006KT P6SM BKN120
     FM201800 31009KT P6SM SCT080
     FM210400 28010KT P6SM SCT050 BKN150
     FM210600 32013G20KT P6SM SCT050=

USA.gov is the U.S. government's official web portal to all federal, state and local government web resources and services.